createdAt,value
2018-08-23T00:01:05.852Z,997.81
2018-08-23T00:02:16.261Z,997.78
2018-08-23T00:03:26.364Z,997.78
2018-08-23T00:04:36.876Z,997.75
2018-08-23T00:05:46.710Z,997.78
2018-08-23T00:06:56.823Z,997.78
2018-08-23T00:08:06.703Z,997.77
2018-08-23T00:09:16.558Z,997.7
2018-08-23T00:10:26.706Z,997.73
2018-08-23T00:11:36.870Z,997.73
2018-08-23T00:12:46.978Z,997.73
2018-08-23T00:13:57.160Z,997.74
2018-08-23T00:15:07.068Z,997.69
2018-08-23T00:16:17.152Z,997.7
2018-08-23T00:17:27.211Z,997.7
2018-08-23T00:18:37.288Z,997.67
2018-08-23T00:19:47.392Z,997.68
2018-08-23T00:20:57.475Z,997.7
2018-08-23T00:22:07.541Z,997.68
2018-08-23T00:23:17.620Z,997.67
2018-08-23T00:24:27.701Z,997.67
2018-08-23T00:25:37.520Z,997.7
2018-08-23T00:26:47.613Z,997.65
2018-08-23T00:27:57.761Z,997.68
2018-08-23T00:29:08.461Z,997.69
2018-08-23T00:30:18.088Z,997.7
2018-08-23T00:31:27.929Z,997.66
2018-08-23T00:32:38.023Z,997.7
2018-08-23T00:33:48.110Z,997.68
2018-08-23T00:34:58.192Z,997.68
2018-08-23T00:36:08.277Z,997.65
2018-08-23T00:37:18.108Z,997.65
2018-08-23T00:38:28.207Z,997.64
2018-08-23T00:39:38.364Z,997.63
2018-08-23T00:40:48.173Z,997.64
2018-08-23T00:41:58.251Z,997.65
2018-08-23T00:43:08.343Z,997.66
2018-08-23T00:44:18.450Z,997.62
2018-08-23T00:45:28.529Z,997.66
2018-08-23T00:46:38.593Z,997.65
2018-08-23T00:47:48.674Z,997.67
2018-08-23T00:48:58.238Z,997.64
2018-08-23T00:50:08.063Z,997.65
2018-08-23T00:51:17.904Z,997.66
2018-08-23T00:52:27.749Z,997.7
2018-08-23T00:53:37.834Z,997.67
2018-08-23T00:54:47.915Z,997.71
2018-08-23T00:55:57.759Z,997.7
2018-08-23T00:57:07.741Z,997.7
2018-08-23T00:58:17.598Z,997.7
2018-08-23T00:59:27.689Z,997.69
2018-08-23T01:00:37.773Z,997.68
2018-08-23T01:01:47.839Z,997.69
2018-08-23T01:02:57.966Z,997.67
2018-08-23T01:04:07.800Z,997.66
2018-08-23T01:05:17.895Z,997.66
2018-08-23T01:06:28.001Z,997.63
2018-08-23T01:07:38.084Z,997.65
2018-08-23T01:08:48.167Z,997.64
2018-08-23T01:09:57.733Z,997.63
2018-08-23T01:11:07.550Z,997.62
2018-08-23T01:12:17.621Z,997.59
2018-08-23T01:13:27.465Z,997.61
2018-08-23T01:14:37.331Z,997.61
2018-08-23T01:15:47.407Z,997.61
2018-08-23T01:16:57.505Z,997.61
2018-08-23T01:18:07.585Z,997.59
2018-08-23T01:19:17.715Z,997.59
2018-08-23T01:20:27.845Z,997.57
2018-08-23T01:21:37.694Z,997.56
2018-08-23T01:22:47.517Z,997.58
2018-08-23T01:23:57.358Z,997.56
2018-08-23T01:25:07.236Z,997.57
2018-08-23T01:26:17.366Z,997.59
2018-08-23T01:27:27.483Z,997.57
2018-08-23T01:28:37.565Z,997.53
2018-08-23T01:29:47.633Z,997.51
2018-08-23T01:30:57.718Z,997.5
2018-08-23T01:32:07.545Z,997.5
2018-08-23T01:33:17.638Z,997.47
2018-08-23T01:34:27.734Z,997.5
2018-08-23T01:35:37.806Z,997.46
2018-08-23T01:36:47.643Z,997.46
2018-08-23T01:37:57.760Z,997.46
2018-08-23T01:39:07.825Z,997.44
2018-08-23T01:40:17.914Z,997.46
2018-08-23T01:41:27.998Z,997.4
2018-08-23T01:42:38.074Z,997.41
2018-08-23T01:43:48.178Z,997.4
2018-08-23T01:44:58.279Z,997.36
2018-08-23T01:46:08.085Z,997.37
2018-08-23T01:47:17.898Z,997.35
2018-08-23T01:48:27.970Z,997.33
2018-08-23T01:49:38.041Z,997.32
2018-08-23T01:50:48.131Z,997.31
2018-08-23T01:51:58.245Z,997.32
2018-08-23T01:53:08.322Z,997.35
2018-08-23T01:54:18.398Z,997.35
2018-08-23T01:55:28.256Z,997.34
2018-08-23T01:56:38.343Z,997.32
2018-08-23T01:57:47.898Z,997.29
2018-08-23T01:58:57.714Z,997.3
2018-08-23T02:00:07.817Z,997.28
2018-08-23T02:01:17.899Z,997.28
2018-08-23T02:02:27.975Z,997.22
2018-08-23T02:03:38.044Z,997.25
2018-08-23T02:04:48.150Z,997.2
2018-08-23T02:05:57.997Z,997.24
2018-08-23T02:07:08.193Z,997.2
2018-08-23T02:08:18.282Z,997.2
2018-08-23T02:09:28.374Z,997.22
2018-08-23T02:10:38.444Z,997.17
2018-08-23T02:11:48.538Z,997.2
2018-08-23T02:12:58.673Z,997.2
2018-08-23T02:14:08.482Z,997.18
2018-08-23T02:15:18.579Z,997.15
2018-08-23T02:16:28.651Z,997.19
2018-08-23T02:17:38.735Z,997.16
2018-08-23T02:18:48.805Z,997.19
2018-08-23T02:19:58.886Z,997.19
2018-08-23T02:21:08.689Z,997.16
2018-08-23T02:22:18.778Z,997.17
2018-08-23T02:23:28.863Z,997.17
2018-08-23T02:24:38.742Z,997.15
2018-08-23T02:25:48.823Z,997.13
2018-08-23T02:26:58.911Z,997.17
2018-08-23T02:28:08.736Z,997.18
2018-08-23T02:29:18.805Z,997.12
2018-08-23T02:30:29.003Z,997.14
2018-08-23T02:31:38.832Z,997.16
2018-08-23T02:32:48.910Z,997.16
2018-08-23T02:33:58.992Z,997.19
2018-08-23T02:35:08.803Z,997.13
2018-08-23T02:36:18.876Z,997.18
2018-08-23T02:37:28.968Z,997.16
2018-08-23T02:38:39.062Z,997.17
2018-08-23T02:39:49.158Z,997.15
2018-08-23T02:40:59.248Z,997.19
2018-08-23T02:42:09.379Z,997.2
2018-08-23T02:43:19.203Z,997.2
2018-08-23T02:44:29.086Z,997.18
2018-08-23T02:45:39.015Z,997.2
2018-08-23T02:46:48.848Z,997.2
2018-08-23T02:47:58.916Z,997.16
2018-08-23T02:49:09.015Z,997.18
2018-08-23T02:50:19.092Z,997.18
2018-08-23T02:51:28.901Z,997.22
2018-08-23T02:52:38.969Z,997.22
2018-08-23T02:53:49.031Z,997.24
2018-08-23T02:54:58.834Z,997.27
2018-08-23T02:56:08.904Z,997.25
2018-08-23T02:57:18.980Z,997.26
2018-08-23T02:58:29.048Z,997.28
2018-08-23T02:59:38.869Z,997.27
2018-08-23T03:00:48.953Z,997.3
2018-08-23T03:01:59.059Z,997.23
2018-08-23T03:35:01.156Z,997.24
2018-08-23T03:36:11.239Z,997.25
2018-08-23T03:37:21.325Z,997.26
2018-08-23T03:38:31.381Z,997.27
2018-08-23T03:39:41.505Z,997.27
2018-08-23T03:40:51.575Z,997.31
2018-08-23T03:42:01.661Z,997.31
2018-08-23T03:43:11.726Z,997.31
2018-08-23T03:44:21.803Z,997.33
2018-08-23T03:45:31.621Z,997.29
2018-08-23T03:46:41.495Z,997.31
2018-08-23T03:47:51.576Z,997.29
2018-08-23T03:49:01.392Z,997.31
2018-08-23T03:50:11.525Z,997.31
2018-08-23T03:51:21.344Z,997.3
2018-08-23T03:52:31.317Z,997.32
2018-08-23T03:53:41.759Z,997.29
2018-08-23T03:54:51.826Z,997.28
2018-08-23T03:56:01.669Z,997.28
2018-08-23T03:57:11.489Z,997.27
2018-08-23T03:58:21.363Z,997.26
2018-08-23T03:59:31.457Z,997.26
2018-08-23T04:00:41.780Z,997.31
2018-08-23T04:01:51.856Z,997.29
2018-08-23T04:03:01.917Z,997.3
2018-08-23T04:04:12.110Z,997.34
2018-08-23T04:05:22.176Z,997.35
2018-08-23T04:06:31.997Z,997.34
2018-08-23T04:07:42.078Z,997.35
2018-08-23T04:08:52.179Z,997.37
2018-08-23T04:10:02.260Z,997.37
2018-08-23T04:11:12.342Z,997.36
2018-08-23T04:12:22.404Z,997.37
2018-08-23T04:13:32.471Z,997.37
2018-08-23T04:14:42.291Z,997.34
2018-08-23T04:15:52.427Z,997.35
2018-08-23T04:17:02.247Z,997.38
2018-08-23T04:18:12.369Z,997.38
2018-08-23T04:19:22.453Z,997.41
2018-08-23T04:20:32.542Z,997.39
2018-08-23T04:21:42.626Z,997.4
2018-08-23T04:22:52.789Z,997.43
2018-08-23T04:24:03.373Z,997.4
2018-08-23T04:25:12.936Z,997.4
2018-08-23T04:26:23.027Z,997.43
2018-08-23T04:27:33.118Z,997.46
2018-08-23T04:28:43.206Z,997.48
2018-08-23T04:29:53.273Z,997.45
2018-08-23T04:31:03.363Z,997.46
2018-08-23T04:32:13.175Z,997.47
2018-08-23T04:33:23.027Z,997.48
2018-08-23T04:34:32.852Z,997.49
2018-08-23T04:35:42.941Z,997.5
2018-08-23T04:36:52.752Z,997.53
2018-08-23T04:38:02.819Z,997.63
2018-08-23T04:39:12.941Z,997.66
2018-08-23T04:40:22.998Z,997.67
2018-08-23T04:41:33.071Z,997.72
2018-08-23T04:42:42.896Z,997.9
2018-08-23T04:43:52.959Z,997.88
2018-08-23T04:45:03.036Z,997.87
2018-08-23T04:46:13.105Z,997.8
2018-08-23T04:47:23.173Z,997.8
2018-08-23T04:48:33.242Z,997.76
2018-08-23T04:49:43.333Z,997.87
2018-08-23T04:50:53.415Z,997.93
2018-08-23T04:52:03.733Z,997.96
2018-08-23T04:53:13.556Z,997.92
2018-08-23T04:54:23.628Z,997.9
2018-08-23T04:55:33.448Z,997.97
2018-08-23T04:56:43.622Z,998.07
2018-08-23T04:57:53.685Z,997.96
2018-08-23T04:59:03.810Z,997.96
2018-08-23T05:00:13.886Z,997.98
2018-08-23T05:01:23.993Z,997.98
2018-08-23T05:02:33.804Z,997.95
2018-08-23T05:03:43.886Z,997.98
2018-08-23T05:04:53.745Z,998.04
2018-08-23T05:06:03.825Z,998
2018-08-23T05:07:13.641Z,997.91
2018-08-23T05:08:23.732Z,997.89
2018-08-23T05:09:33.280Z,997.95
2018-08-23T05:10:43.107Z,997.98
2018-08-23T05:11:52.927Z,997.96
2018-08-23T05:13:02.989Z,998
2018-08-23T05:14:13.091Z,997.97
2018-08-23T05:15:23.178Z,998.01
2018-08-23T05:16:32.986Z,998.02
2018-08-23T05:17:42.817Z,998.01
2018-08-23T05:18:52.913Z,997.91
2018-08-23T05:20:03.116Z,997.94
2018-08-23T05:21:13.189Z,997.89
2018-08-23T05:22:23.284Z,997.89
2018-08-23T05:23:33.361Z,997.9
2018-08-23T05:24:43.224Z,997.89
2018-08-23T05:25:53.368Z,997.82
2018-08-23T05:27:03.708Z,997.82
2018-08-23T05:28:13.537Z,997.83
2018-08-23T05:29:23.644Z,997.85
2018-08-23T05:30:33.496Z,997.87
2018-08-23T05:31:43.597Z,997.85
2018-08-23T05:32:53.147Z,997.81
2018-08-23T05:34:03.361Z,997.86
2018-08-23T05:35:13.468Z,997.86
2018-08-23T05:36:23.534Z,997.85
2018-08-23T05:37:33.636Z,997.93
2018-08-23T05:38:43.699Z,997.88
2018-08-23T05:39:53.522Z,997.92
2018-08-23T05:41:03.339Z,997.93
2018-08-23T05:42:13.441Z,997.94
2018-08-23T05:43:23.256Z,997.89
2018-08-23T05:44:33.340Z,997.76
2018-08-23T05:45:43.420Z,997.72
2018-08-23T05:46:53.504Z,997.7
2018-08-23T05:48:03.600Z,997.76
2018-08-23T05:49:13.681Z,997.8
2018-08-23T05:50:23.764Z,997.86
2018-08-23T05:51:33.843Z,997.85
2018-08-23T05:52:43.908Z,997.74
2018-08-23T05:53:53.720Z,997.68
2018-08-23T05:55:03.866Z,997.72
2018-08-23T05:56:13.929Z,997.69
2018-08-23T05:57:24.006Z,997.68
2018-08-23T05:58:34.105Z,997.65
2018-08-23T05:59:44.188Z,997.64
2018-08-23T06:00:54.026Z,997.62
2018-08-23T06:02:03.839Z,997.65
2018-08-23T06:03:13.932Z,997.68
2018-08-23T06:04:24.016Z,997.69
2018-08-23T06:05:33.831Z,997.67
2018-08-23T06:06:43.913Z,997.68
2018-08-23T06:07:53.726Z,997.67
2018-08-23T06:09:03.548Z,997.67
2018-08-23T06:10:13.620Z,997.68
2018-08-23T06:11:23.180Z,997.73
2018-08-23T06:12:33.047Z,997.75
2018-08-23T06:13:42.870Z,997.73
2018-08-23T06:14:52.676Z,997.69
2018-08-23T06:16:02.754Z,997.68
2018-08-23T06:17:12.604Z,997.7
2018-08-23T06:18:22.721Z,997.68
2018-08-23T06:19:32.790Z,997.69
2018-08-23T06:20:42.614Z,997.71
2018-08-23T06:21:52.692Z,997.71
2018-08-23T06:23:02.762Z,997.73
2018-08-23T06:24:12.651Z,997.75
2018-08-23T06:25:22.222Z,997.72
2018-08-23T06:26:31.799Z,997.71
2018-08-23T06:27:41.603Z,997.7
2018-08-23T06:28:51.413Z,997.74
2018-08-23T06:30:01.490Z,997.76
2018-08-23T06:31:10.788Z,997.76
2018-08-23T06:32:20.879Z,997.75
2018-08-23T06:33:30.832Z,997.73
2018-08-23T06:34:41.355Z,997.75
2018-08-23T06:35:51.199Z,997.72
2018-08-23T06:37:01.019Z,997.75
2018-08-23T06:38:10.591Z,997.7
2018-08-23T06:39:20.132Z,997.67
2018-08-23T06:40:29.689Z,997.69
2018-08-23T06:41:39.502Z,997.65
2018-08-23T06:42:48.786Z,997.65
2018-08-23T06:43:58.843Z,997.64
2018-08-23T06:45:08.663Z,997.63
2018-08-23T06:46:17.974Z,997.65
2018-08-23T06:47:27.524Z,997.69
2018-08-23T06:48:37.598Z,997.67
2018-08-23T06:49:47.254Z,997.65
2018-08-23T06:50:56.545Z,997.6
2018-08-23T06:52:06.647Z,997.6
2018-08-23T06:53:16.890Z,997.57
2018-08-23T06:54:26.723Z,997.63
2018-08-23T06:55:36.277Z,997.64
2018-08-23T06:56:46.356Z,997.62
2018-08-23T06:57:55.946Z,997.61
2018-08-23T06:59:05.758Z,997.58
2018-08-23T07:00:15.593Z,997.59
2018-08-23T07:01:25.444Z,997.58
2018-08-23T07:02:35.424Z,997.62
2018-08-23T07:03:45.075Z,997.61
2018-08-23T07:04:55.160Z,997.58
2018-08-23T07:06:05.001Z,997.57
2018-08-23T07:07:15.107Z,997.54
2018-08-23T07:08:24.674Z,997.58
2018-08-23T07:09:34.314Z,997.58
2018-08-23T07:10:44.144Z,997.56
2018-08-23T07:11:53.307Z,997.57
2018-08-23T07:13:03.300Z,997.53
2018-08-23T07:14:13.374Z,997.55
2018-08-23T07:15:22.954Z,997.55
2018-08-23T07:16:33.074Z,997.47
2018-08-23T07:17:43.093Z,997.49
2018-08-23T07:18:53.453Z,997.51
2018-08-23T07:20:03.029Z,997.48
2018-08-23T07:21:13.124Z,997.47
2018-08-23T07:22:22.709Z,997.46
2018-08-23T07:23:32.918Z,997.44
2018-08-23T07:24:42.751Z,997.41
2018-08-23T07:25:52.573Z,997.43
2018-08-23T07:27:02.702Z,997.43
2018-08-23T07:28:12.336Z,997.41
2018-08-23T07:29:22.151Z,997.43
2018-08-23T07:30:31.982Z,997.43
2018-08-23T07:31:42.098Z,997.4
2018-08-23T07:32:52.171Z,997.38
2018-08-23T07:34:02.136Z,997.37
2018-08-23T07:35:11.978Z,997.38
2018-08-23T07:36:22.107Z,997.41
2018-08-23T07:37:32.243Z,997.45
2018-08-23T07:38:42.332Z,997.39
2018-08-23T07:39:52.421Z,997.4
2018-08-23T07:41:02.646Z,997.38
2018-08-23T07:42:12.715Z,997.46
2018-08-23T07:43:22.924Z,997.37
2018-08-23T07:44:33.128Z,997.42
2018-08-23T07:45:43.220Z,997.4
2018-08-23T07:46:53.308Z,997.42
2018-08-23T07:48:03.417Z,997.4
2018-08-23T07:49:13.255Z,997.39
2018-08-23T07:50:23.468Z,997.38
2018-08-23T07:51:33.579Z,997.34
2018-08-23T07:52:43.753Z,997.36
2018-08-23T07:53:54.541Z,997.38
2018-08-23T07:55:04.628Z,997.4
2018-08-23T07:56:14.466Z,997.39
2018-08-23T07:57:24.026Z,997.35
2018-08-23T07:58:34.099Z,997.39
2018-08-23T07:59:44.182Z,997.37
2018-08-23T08:00:53.739Z,997.41
2018-08-23T08:02:03.827Z,997.41
2018-08-23T08:03:13.646Z,997.41
2018-08-23T08:04:23.739Z,997.41
2018-08-23T08:05:33.824Z,997.4
2018-08-23T08:06:43.903Z,997.37
2018-08-23T08:07:54.000Z,997.35
2018-08-23T08:09:04.087Z,997.37
2018-08-23T08:10:13.910Z,997.3
2018-08-23T08:11:23.989Z,997.33
2018-08-23T08:12:34.126Z,997.32
2018-08-23T08:13:43.951Z,997.34
2018-08-23T08:14:54.146Z,997.27
2018-08-23T08:16:04.779Z,997.28
2018-08-23T08:17:14.869Z,997.29
2018-08-23T08:18:24.984Z,997.3
2018-08-23T08:19:34.813Z,997.28
2018-08-23T08:20:44.948Z,997.31
2018-08-23T08:21:55.121Z,997.31
2018-08-23T08:23:04.971Z,997.27
2018-08-23T08:24:15.072Z,997.27
2018-08-23T08:25:25.168Z,997.24
2018-08-23T08:26:35.245Z,997.26
2018-08-23T08:27:45.402Z,997.24
2018-08-23T08:28:55.231Z,997.26
2018-08-23T08:30:05.316Z,997.24
2018-08-23T08:31:15.399Z,997.23
2018-08-23T08:32:25.507Z,997.22
2018-08-23T08:33:35.346Z,997.28
2018-08-23T08:34:45.441Z,997.24
2018-08-23T08:35:55.553Z,997.23
2018-08-23T08:37:05.672Z,997.19
2018-08-23T08:38:15.757Z,997.2
2018-08-23T08:39:25.890Z,997.22
2018-08-23T08:40:35.999Z,997.22
2018-08-23T08:41:46.114Z,997.23
2018-08-23T08:42:56.303Z,997.2
2018-08-23T08:44:06.407Z,997.22
2018-08-23T08:45:16.577Z,997.14
2018-08-23T08:46:26.676Z,997.17
2018-08-23T08:47:36.491Z,997.13
2018-08-23T08:48:46.305Z,997.17
2018-08-23T08:49:56.375Z,997.09
2018-08-23T08:51:06.001Z,997.12
2018-08-23T08:52:16.096Z,997.11
2018-08-23T08:53:26.197Z,997.06
2018-08-23T08:54:36.292Z,997.12
2018-08-23T08:55:46.099Z,997.11
2018-08-23T08:56:56.349Z,997.08
2018-08-23T08:58:06.916Z,997.08
2018-08-23T08:59:16.816Z,997.08
2018-08-23T09:00:26.909Z,997.14
2018-08-23T09:01:37.037Z,997.11
2018-08-23T09:02:47.225Z,997.13
2018-08-23T09:03:57.072Z,997.09
2018-08-23T09:05:06.892Z,997.07
2018-08-23T09:06:16.467Z,997.06
2018-08-23T09:07:26.575Z,997.09
2018-08-23T09:08:36.720Z,997.02
2018-08-23T09:09:46.585Z,997.04
2018-08-23T09:10:57.226Z,997.05
2018-08-23T09:12:07.352Z,997.08
2018-08-23T09:13:17.448Z,997.07
2018-08-23T09:14:27.600Z,997.06
2018-08-23T09:15:37.413Z,997.02
2018-08-23T09:16:47.502Z,997.03
2018-08-23T09:17:57.611Z,996.98
2018-08-23T09:19:07.709Z,996.98
2018-08-23T09:20:17.823Z,996.93
2018-08-23T09:21:28.189Z,996.91
2018-08-23T09:22:38.523Z,996.87
2018-08-23T09:23:48.348Z,996.86
2018-08-23T09:24:58.427Z,996.84
2018-08-23T09:26:08.348Z,996.8
2018-08-23T09:27:18.486Z,996.87
2018-08-23T09:28:28.810Z,996.79
2018-08-23T09:29:38.876Z,996.77
2018-08-23T09:30:48.977Z,996.78
2018-08-23T09:31:59.130Z,996.81
2018-08-23T09:33:09.174Z,996.81
2018-08-23T09:34:19.251Z,996.82
2018-08-23T09:35:29.408Z,996.81
2018-08-23T09:36:39.545Z,996.81
2018-08-23T09:37:49.684Z,996.83
2018-08-23T09:39:00.321Z,996.75
2018-08-23T09:40:10.407Z,996.74
2018-08-23T09:41:20.526Z,996.73
2018-08-23T09:42:30.372Z,996.71
2018-08-23T09:43:40.452Z,996.74
2018-08-23T09:44:50.557Z,996.7
2018-08-23T09:46:00.772Z,996.69
2018-08-23T09:47:10.932Z,996.67
2018-08-23T09:48:21.032Z,996.62
2018-08-23T09:49:31.121Z,996.59
2018-08-23T09:50:41.258Z,996.58
2018-08-23T09:51:51.828Z,996.56
2018-08-23T09:53:01.919Z,996.59
2018-08-23T09:54:11.746Z,996.53
2018-08-23T09:55:21.922Z,996.48
2018-08-23T09:56:32.034Z,996.46
2018-08-23T09:57:42.716Z,996.46
2018-08-23T09:58:52.856Z,996.52
2018-08-23T10:00:03.086Z,996.45
2018-08-23T10:01:13.238Z,996.48
2018-08-23T10:02:23.347Z,996.42
2018-08-23T10:03:33.430Z,996.37
2018-08-23T10:04:43.332Z,996.38
2018-08-23T10:05:53.816Z,996.42
2018-08-23T10:07:03.754Z,996.36
2018-08-23T10:08:13.855Z,996.32
2018-08-23T10:09:23.988Z,996.31
2018-08-23T10:10:34.111Z,996.28
2018-08-23T10:11:44.230Z,996.29
2018-08-23T10:12:54.934Z,996.31
2018-08-23T10:14:05.025Z,996.25
2018-08-23T10:15:15.127Z,996.23
2018-08-23T10:16:25.224Z,996.24
2018-08-23T10:17:35.323Z,996.21
2018-08-23T10:18:45.467Z,996.18
2018-08-23T10:19:55.627Z,996.2
2018-08-23T10:21:05.738Z,996.13
2018-08-23T10:22:15.829Z,996.14
2018-08-23T10:23:25.934Z,996.12
2018-08-23T10:24:35.251Z,996.07
2018-08-23T10:25:45.351Z,996.05
2018-08-23T10:26:55.497Z,996.03
2018-08-23T10:28:05.613Z,995.99
2018-08-23T10:29:15.717Z,996.01
2018-08-23T10:30:25.877Z,995.99
2018-08-23T10:31:35.986Z,995.98
2018-08-23T10:32:45.802Z,996
2018-08-23T10:33:55.642Z,995.96
2018-08-23T10:35:05.450Z,995.96
2018-08-23T10:36:15.521Z,995.93
2018-08-23T10:37:25.628Z,995.96
2018-08-23T10:38:35.720Z,995.97
2018-08-23T10:39:45.835Z,995.92
2018-08-23T10:40:55.678Z,995.93
2018-08-23T10:42:05.556Z,995.84
2018-08-23T10:43:15.395Z,995.84
2018-08-23T10:44:25.216Z,995.84
2018-08-23T10:45:35.622Z,995.84
2018-08-23T10:46:45.704Z,995.83
2018-08-23T10:47:55.843Z,995.82
2018-08-23T10:49:05.687Z,995.78
2018-08-23T10:50:15.552Z,995.75
2018-08-23T10:51:25.662Z,995.76
2018-08-23T10:52:35.767Z,995.81
2018-08-23T10:53:45.907Z,995.81
2018-08-23T10:54:56.017Z,995.74
2018-08-23T10:56:06.104Z,995.75
2018-08-23T10:57:15.678Z,995.77
2018-08-23T10:58:25.520Z,995.82
2018-08-23T10:59:35.614Z,995.77
2018-08-23T11:00:45.734Z,995.81
2018-08-23T11:01:55.864Z,995.78
2018-08-23T11:03:05.970Z,995.76
2018-08-23T11:04:16.088Z,995.7
2018-08-23T11:05:26.168Z,995.67
2018-08-23T11:06:36.280Z,995.68
2018-08-23T11:07:46.376Z,995.77
2018-08-23T11:08:56.470Z,995.72
2018-08-23T11:10:06.603Z,995.74
2018-08-23T11:11:16.694Z,995.69
2018-08-23T11:12:26.811Z,995.69
2018-08-23T11:13:36.639Z,995.66
2018-08-23T11:14:46.729Z,995.58
2018-08-23T11:15:56.829Z,995.57
2018-08-23T11:17:06.901Z,995.55
2018-08-23T11:18:17.235Z,995.58
2018-08-23T11:19:27.324Z,995.58
2018-08-23T11:20:36.883Z,995.55
2018-08-23T11:21:46.969Z,995.53
2018-08-23T11:22:57.139Z,995.57
2018-08-23T11:24:07.191Z,995.58
2018-08-23T11:25:17.293Z,995.57
2018-08-23T11:26:27.116Z,995.58
2018-08-23T11:27:36.954Z,995.6
2018-08-23T11:28:46.795Z,995.63
2018-08-23T11:29:56.925Z,995.55
2018-08-23T11:31:07.454Z,995.55
2018-08-23T11:32:17.544Z,995.53
2018-08-23T11:33:27.377Z,995.53
2018-08-23T11:34:37.554Z,995.48
2018-08-23T11:35:47.647Z,995.52
2018-08-23T11:36:57.732Z,995.39
2018-08-23T11:38:07.848Z,995.47
2018-08-23T11:39:17.971Z,995.48
2018-08-23T11:40:27.796Z,995.45
2018-08-23T11:41:37.878Z,995.48
2018-08-23T11:42:48.074Z,995.45
2018-08-23T11:43:58.563Z,995.49
2018-08-23T11:45:08.383Z,995.47
2018-08-23T11:46:18.514Z,995.42
2018-08-23T11:47:28.623Z,995.37
2018-08-23T11:48:38.711Z,995.38
2018-08-23T11:49:49.062Z,995.4
2018-08-23T11:50:59.165Z,995.4
2018-08-23T11:52:09.286Z,995.31
2018-08-23T11:53:19.265Z,995.39
2018-08-23T11:54:30.755Z,995.3
2018-08-23T11:55:40.904Z,995.37
2018-08-23T11:56:50.753Z,995.31
2018-08-23T11:58:00.948Z,995.27
2018-08-23T11:59:11.778Z,995.27
2018-08-23T12:00:21.968Z,995.2
2018-08-23T12:01:32.047Z,995.2
2018-08-23T12:02:42.195Z,995.18
2018-08-23T12:03:52.294Z,995.18
2018-08-23T12:05:02.383Z,995.15
2018-08-23T12:06:12.214Z,995.17
2018-08-23T12:07:22.313Z,995.18
2018-08-23T12:08:32.407Z,995.18
2018-08-23T12:09:42.517Z,995.16
2018-08-23T12:10:52.641Z,995.13
2018-08-23T12:12:02.497Z,995.16
2018-08-23T12:13:12.604Z,995.04
2018-08-23T12:14:22.694Z,995.07
2018-08-23T12:15:32.919Z,995.03
2018-08-23T12:16:43.495Z,995.07
2018-08-23T12:17:53.733Z,995.05
2018-08-23T12:19:03.812Z,994.95
2018-08-23T12:20:13.900Z,995.03
2018-08-23T12:21:24.006Z,995.04
2018-08-23T12:22:34.103Z,995.02
2018-08-23T12:23:44.189Z,995.01
2018-08-23T12:24:54.287Z,995
2018-08-23T12:26:04.192Z,994.92
2018-08-23T12:27:14.377Z,994.93
2018-08-23T12:28:24.472Z,994.94
2018-08-23T12:29:34.301Z,994.91
2018-08-23T12:30:44.529Z,994.86
2018-08-23T12:31:54.637Z,994.89
2018-08-23T12:33:04.976Z,994.88
2018-08-23T12:34:15.100Z,994.82
2018-08-23T12:35:25.293Z,994.84
2018-08-23T12:36:35.392Z,994.82
2018-08-23T12:37:45.580Z,994.82
2018-08-23T12:38:55.729Z,994.77
2018-08-23T12:40:05.876Z,994.82
2018-08-23T12:41:16.001Z,994.81
2018-08-23T12:42:25.850Z,994.8
2018-08-23T12:43:35.880Z,994.8
2018-08-23T12:44:46.050Z,994.75
2018-08-23T12:45:56.200Z,994.74
2018-08-23T12:47:06.300Z,994.7
2018-08-23T12:48:16.409Z,994.71
2018-08-23T12:49:26.631Z,994.66
2018-08-23T12:50:36.742Z,994.64
2018-08-23T12:51:46.583Z,994.69
2018-08-23T12:52:56.670Z,994.66
2018-08-23T12:54:06.776Z,994.59
2018-08-23T12:55:16.896Z,994.59
2018-08-23T12:56:27.081Z,994.58
2018-08-23T12:57:37.353Z,994.51
2018-08-23T12:58:47.488Z,994.56
2018-08-23T12:59:57.600Z,994.56
2018-08-23T13:01:07.704Z,994.5
2018-08-23T13:02:17.935Z,994.41
2018-08-23T13:03:28.195Z,994.43
2018-08-23T13:04:37.948Z,994.44
2018-08-23T13:05:47.789Z,994.43
2018-08-23T13:06:57.632Z,994.39
2018-08-23T13:08:07.547Z,994.39
2018-08-23T13:09:17.824Z,994.4
2018-08-23T13:10:27.671Z,994.31
2018-08-23T13:11:37.793Z,994.25
2018-08-23T13:12:47.652Z,994.26
2018-08-23T13:13:57.740Z,994.23
2018-08-23T13:15:07.566Z,994.24
2018-08-23T13:16:17.672Z,994.27
2018-08-23T13:17:27.777Z,994.26
2018-08-23T13:18:38.225Z,994.22
2018-08-23T13:19:48.124Z,994.19
2018-08-23T13:20:58.223Z,994.1
2018-08-23T13:22:08.344Z,994.12
2018-08-23T13:23:18.455Z,994.1
2018-08-23T13:24:28.552Z,994.07
2018-08-23T13:25:38.656Z,994.03
2018-08-23T13:26:48.748Z,993.97
2018-08-23T13:27:58.618Z,993.96
2018-08-23T13:29:08.450Z,993.9
2018-08-23T13:30:18.563Z,993.91
2018-08-23T13:31:28.580Z,993.91
2018-08-23T13:32:38.503Z,993.85
2018-08-23T13:33:48.590Z,993.87
2018-08-23T13:34:58.696Z,993.86
2018-08-23T13:36:08.565Z,993.81
2018-08-23T13:37:19.452Z,993.8
2018-08-23T13:38:29.023Z,993.77
2018-08-23T13:39:39.151Z,993.74
2018-08-23T13:40:49.260Z,993.66
2018-08-23T13:41:59.537Z,993.74
2018-08-23T13:43:09.972Z,993.72
2018-08-23T13:44:20.071Z,993.7
2018-08-23T13:45:29.913Z,993.69
2018-08-23T13:46:39.496Z,993.65
2018-08-23T13:47:49.588Z,993.69
2018-08-23T13:48:59.680Z,993.68
2018-08-23T13:50:09.519Z,993.68
2018-08-23T13:51:19.614Z,993.73
2018-08-23T13:52:29.721Z,993.72
2018-08-23T13:53:39.773Z,993.67
2018-08-23T13:54:49.693Z,993.7
2018-08-23T13:55:59.552Z,993.63
2018-08-23T13:57:09.684Z,993.59
2018-08-23T13:58:19.925Z,993.59
2018-08-23T13:59:30.028Z,993.54
2018-08-23T14:00:39.591Z,993.58
2018-08-23T14:01:49.430Z,993.54
2018-08-23T14:02:59.290Z,993.63
2018-08-23T14:04:09.405Z,993.6
2018-08-23T14:05:19.504Z,993.57
2018-08-23T14:06:29.732Z,993.58
2018-08-23T14:07:40.410Z,993.56
2018-08-23T14:08:50.902Z,993.55
2018-08-23T14:10:00.825Z,993.54
2018-08-23T14:11:10.981Z,993.54
2018-08-23T14:12:20.830Z,993.47
2018-08-23T14:13:30.912Z,993.5
2018-08-23T14:14:41.076Z,993.44
2018-08-23T14:15:51.192Z,993.39
2018-08-23T14:17:01.324Z,993.38
2018-08-23T14:18:11.171Z,993.4
2018-08-23T14:19:21.360Z,993.39
2018-08-23T14:20:31.890Z,993.37
2018-08-23T14:21:41.731Z,993.24
2018-08-23T14:22:51.844Z,993.29
2018-08-23T14:24:02.047Z,993.28
2018-08-23T14:25:12.155Z,993.31
2018-08-23T14:26:22.353Z,993.34
2018-08-23T14:27:32.205Z,993.31
2018-08-23T14:28:42.365Z,993.29
2018-08-23T14:29:52.207Z,993.28
2018-08-23T14:31:02.314Z,993.22
2018-08-23T14:32:12.485Z,993.16
2018-08-23T14:33:22.334Z,993.2
2018-08-23T14:34:32.434Z,993.17
2018-08-23T14:35:42.288Z,993.16
2018-08-23T14:36:52.121Z,993.14
2018-08-23T14:38:02.252Z,993.09
2018-08-23T14:39:12.363Z,993.14
2018-08-23T14:40:22.558Z,993.12
2018-08-23T14:41:33.254Z,993.13
2018-08-23T14:42:43.431Z,993.08
2018-08-23T14:43:53.520Z,993.08
2018-08-23T14:45:03.353Z,993.1
2018-08-23T14:46:13.444Z,993.07
2018-08-23T14:47:23.389Z,993.05
2018-08-23T14:48:33.263Z,993.06
2018-08-23T14:49:43.382Z,993.06
2018-08-23T14:50:53.489Z,993.05
2018-08-23T14:52:03.559Z,993.06
2018-08-23T14:53:13.704Z,993.03
2018-08-23T14:54:23.929Z,993
2018-08-23T14:55:34.025Z,993.04
2018-08-23T14:56:44.135Z,992.95
2018-08-23T14:57:54.018Z,992.94
2018-08-23T14:59:03.951Z,992.93
2018-08-23T15:00:14.676Z,992.96
2018-08-23T15:01:24.838Z,992.95
2018-08-23T15:02:35.060Z,992.95
2018-08-23T15:03:44.646Z,992.91
2018-08-23T15:04:54.777Z,992.97
2018-08-23T15:06:04.890Z,992.94
2018-08-23T15:07:14.998Z,992.94
2018-08-23T15:08:25.089Z,992.94
2018-08-23T15:09:35.163Z,992.89